createdAt,value
2018-04-28T00:01:51.631Z,56.10
2018-04-28T00:04:19.061Z,55.70
2018-04-28T00:06:46.494Z,55.60
2018-04-28T00:09:15.111Z,55.80
2018-04-28T00:11:42.547Z,55.70
2018-04-28T00:14:10.863Z,55.30
2018-04-28T00:16:50.035Z,55.40
2018-04-28T00:19:20.332Z,55.30
2018-04-28T00:21:53.701Z,55.60
2018-04-28T00:24:21.935Z,56.10
2018-04-28T00:26:50.151Z,56.10
2018-04-28T00:29:21.163Z,56.10
2018-04-28T00:31:53.915Z,56.30
2018-04-28T00:34:22.287Z,56.30
2018-04-28T00:36:59.629Z,56.80
2018-04-28T00:39:27.963Z,56.80
2018-04-28T00:41:56.292Z,57.10
2018-04-28T00:44:23.707Z,57.20
2018-04-28T00:47:04.682Z,57.40
2018-04-28T00:52:29.032Z,58.40
2018-04-28T00:54:58.692Z,58.40
2018-04-28T00:57:26.119Z,58.10
2018-04-28T00:59:54.485Z,58.20
2018-04-28T01:02:24.629Z,58.50
2018-04-28T01:04:52.061Z,58.00
2018-04-28T01:07:21.307Z,58.60
2018-04-28T01:09:56.615Z,59.00
2018-04-28T01:12:24.064Z,58.90
2018-04-28T01:14:51.491Z,59.00
2018-04-28T01:17:22.549Z,59.90
2018-04-28T01:19:58.643Z,59.90
2018-04-28T01:25:33.820Z,59.80
2018-04-28T01:28:01.251Z,61.20
2018-04-28T01:33:27.123Z,61.00
2018-04-28T01:39:08.554Z,60.70
2018-04-28T01:44:39.074Z,60.30
2018-04-28T01:47:10.199Z,60.80
2018-04-28T01:49:47.566Z,60.70
2018-04-28T01:52:17.811Z,60.70
2018-04-28T01:54:45.963Z,60.90
2018-04-28T01:57:17.294Z,61.20
2018-04-28T01:59:49.241Z,61.40
2018-04-28T02:02:19.239Z,62.20
2018-04-28T02:04:53.392Z,62.00
2018-04-28T02:07:20.827Z,62.30
2018-04-28T02:09:52.011Z,63.70
2018-04-28T02:12:25.824Z,63.70
2018-04-28T02:14:58.088Z,64.50
2018-04-28T02:17:28.308Z,64.30
2018-04-28T02:20:15.023Z,64.60
2018-04-28T02:22:54.174Z,65.00
2018-04-28T02:28:29.895Z,65.50
2018-04-28T02:31:14.036Z,66.00
2018-04-28T02:33:57.122Z,66.30
2018-04-28T02:36:25.337Z,66.10
2018-04-28T02:39:09.180Z,66.60
2018-04-28T02:41:47.276Z,66.60
2018-04-28T02:44:23.147Z,67.40
2018-04-28T02:46:50.580Z,67.40
2018-04-28T02:49:32.632Z,67.00
2018-04-28T02:52:02.901Z,67.80
2018-04-28T02:54:32.242Z,66.80
2018-04-28T02:57:02.769Z,66.70
2018-04-28T02:59:47.609Z,67.40
2018-04-28T03:02:20.879Z,67.00
2018-04-28T03:05:07.518Z,68.30
2018-04-28T03:07:45.735Z,69.10
2018-04-28T03:10:33.608Z,69.60
2018-04-28T03:13:01.051Z,69.20
2018-04-28T03:15:28.482Z,68.90
2018-04-28T03:18:01.519Z,69.00
2018-04-28T03:20:35.698Z,68.90
2018-04-28T03:23:05.995Z,68.80
2018-04-28T03:25:40.768Z,68.70
2018-04-28T03:28:14.118Z,68.50
2018-04-28T03:30:45.212Z,68.50
2018-04-28T03:33:16.135Z,68.30
2018-04-28T03:36:01.300Z,67.90
2018-04-28T03:38:30.263Z,68.20
2018-04-28T03:40:57.692Z,68.10
2018-04-28T03:43:35.031Z,68.30
2018-04-28T03:51:50.376Z,67.20
2018-04-28T03:54:25.588Z,68.10
2018-04-28T03:59:55.467Z,68.10
2018-04-28T04:02:34.686Z,68.80
2018-04-28T04:05:04.014Z,68.40
2018-04-28T04:07:34.013Z,68.50
2018-04-28T04:10:05.454Z,68.40
2018-04-28T04:15:31.684Z,68.30
2018-04-28T04:18:08.163Z,68.60
2018-04-28T04:20:47.578Z,69.10
2018-04-28T04:23:22.240Z,69.80
2018-04-28T04:28:51.307Z,69.60
2018-04-28T04:31:40.040Z,70.00
2018-04-28T04:34:09.538Z,69.60
2018-04-28T04:36:57.659Z,70.80
2018-04-28T04:39:40.000Z,70.40
2018-04-28T04:42:17.132Z,70.80
2018-04-28T04:44:51.252Z,71.50
2018-04-28T04:47:30.529Z,71.20
2018-04-28T04:50:06.548Z,70.50
2018-04-28T04:52:45.664Z,70.50
2018-04-28T04:55:29.887Z,71.00
2018-04-28T04:57:58.716Z,71.00
2018-04-28T05:00:34.910Z,70.80
2018-04-28T05:03:14.279Z,70.50
2018-04-28T05:09:01.981Z,70.60
2018-04-28T05:14:21.018Z,71.90
2018-04-28T05:16:51.272Z,71.60
2018-04-28T05:19:30.713Z,71.20
2018-04-28T05:22:03.939Z,72.20
2018-04-28T05:24:38.858Z,70.80
2018-04-28T05:27:10.784Z,70.70
2018-04-28T05:32:42.436Z,69.60
2018-04-28T05:35:30.524Z,70.70
2018-04-28T05:38:09.791Z,70.20
2018-04-28T05:43:56.351Z,68.30
2018-04-28T05:46:31.143Z,68.80
2018-04-28T05:49:15.070Z,68.70
2018-04-28T05:51:54.148Z,68.40
2018-04-28T05:57:30.949Z,67.50
2018-04-28T06:03:07.467Z,68.50
2018-04-28T06:05:51.418Z,68.40
2018-04-28T06:08:28.451Z,67.20
2018-04-28T06:11:18.341Z,67.20
2018-04-28T06:13:57.686Z,67.20
2018-04-28T06:16:34.908Z,67.80
2018-04-28T06:19:07.964Z,66.90
2018-04-28T06:21:35.384Z,66.60
2018-04-28T06:24:02.824Z,66.60
2018-04-28T06:26:30.251Z,64.90
2018-04-28T06:28:58.455Z,61.30
2018-04-28T06:31:25.884Z,61.30
2018-04-28T06:33:54.092Z,57.60
2018-04-28T06:36:21.535Z,57.60
2018-04-28T06:38:48.971Z,55.90
2018-04-28T06:41:17.193Z,54.00
2018-04-28T06:43:45.381Z,54.20
2018-04-28T06:46:12.804Z,54.20
2018-04-28T06:48:40.232Z,54.10
2018-04-28T06:51:08.500Z,54.10
2018-04-28T06:53:35.889Z,54.00
2018-04-28T06:56:03.322Z,53.90
2018-04-28T06:58:31.547Z,55.50
2018-04-28T07:00:58.967Z,55.40
2018-04-28T07:03:26.404Z,55.70
2018-04-28T07:05:54.604Z,56.00
2018-04-28T07:08:22.047Z,55.90
2018-04-28T07:10:50.330Z,56.60
2018-04-28T07:13:17.679Z,56.50
2018-04-28T07:15:45.134Z,55.50
2018-04-28T07:18:13.339Z,57.00
2018-04-28T07:20:40.752Z,57.40
2018-04-28T07:23:08.973Z,58.50
2018-04-28T07:25:36.421Z,58.50
2018-04-28T07:28:03.863Z,58.50
2018-04-28T07:30:32.068Z,58.70
2018-04-28T07:32:59.498Z,58.60
2018-04-28T07:35:27.733Z,59.20
2018-04-28T07:37:55.191Z,59.20
2018-04-28T07:40:22.630Z,59.00
2018-04-28T07:42:50.069Z,59.20
2018-04-28T07:45:17.490Z,59.60
2018-04-28T07:47:45.717Z,58.30
2018-04-28T07:50:13.167Z,58.20
2018-04-28T07:52:40.602Z,58.50
2018-04-28T07:55:08.032Z,57.20
2018-04-28T07:57:36.227Z,57.50
2018-04-28T08:00:03.687Z,57.40
2018-04-28T08:02:31.118Z,57.50
2018-04-28T08:04:58.560Z,57.50
2018-04-28T08:07:25.991Z,57.60
2018-04-28T08:09:53.424Z,58.00
2018-04-28T08:12:20.876Z,57.10
2018-04-28T08:14:48.317Z,57.10
2018-04-28T08:17:16.511Z,57.80
2018-04-28T08:54:49.620Z,63.30
2018-04-28T08:57:18.141Z,57.20
2018-04-28T08:59:57.415Z,57.10
2018-04-28T09:02:24.887Z,55.40
2018-04-28T09:04:52.315Z,53.90
2018-04-28T09:07:26.383Z,53.90
2018-04-28T09:09:53.873Z,53.50
2018-04-28T09:12:21.415Z,54.70
2018-04-28T09:14:48.857Z,52.70
2018-04-28T09:17:17.082Z,50.90
2018-04-28T09:19:45.275Z,44.50
2018-04-28T09:22:12.739Z,44.90
2018-04-28T09:24:41.308Z,41.60
2018-04-28T09:27:08.768Z,40.20
2018-04-28T09:29:36.202Z,41.00
2018-04-28T09:32:03.626Z,39.40
2018-04-28T09:34:31.666Z,38.20
2018-04-28T09:36:59.104Z,38.00
2018-04-28T09:39:26.936Z,35.30
2018-04-28T09:41:54.389Z,35.40
2018-04-28T09:44:21.846Z,35.20
2018-04-28T09:46:49.269Z,35.60
2018-04-28T09:49:17.495Z,34.00
2018-04-28T09:51:44.944Z,33.90
2018-04-28T09:54:12.387Z,33.00
2018-04-28T09:56:39.844Z,34.10
2018-04-28T09:59:07.285Z,35.20
2018-04-28T10:01:41.318Z,39.20
2018-04-28T10:04:14.405Z,41.50
2018-04-28T10:06:41.848Z,42.10
2018-04-28T10:09:09.278Z,42.80
2018-04-28T10:11:36.724Z,42.60
2018-04-28T10:14:04.152Z,42.50
2018-04-28T10:16:31.601Z,41.10
2018-04-28T10:18:59.059Z,42.50
2018-04-28T10:21:26.510Z,42.50
2018-04-28T10:23:53.935Z,43.20
2018-04-28T10:28:50.920Z,42.70
2018-04-28T10:31:18.364Z,42.50
2018-04-28T10:33:46.602Z,44.50
2018-04-28T10:36:14.034Z,44.50
2018-04-28T10:38:41.869Z,45.60
2018-04-28T10:41:10.069Z,45.60
2018-04-28T10:43:37.508Z,46.20
2018-04-28T10:46:04.948Z,45.20
2018-04-28T10:48:33.152Z,45.90
2018-04-28T10:51:00.590Z,45.90
2018-04-28T10:53:28.840Z,43.50
2018-04-28T10:55:56.271Z,42.50
2018-04-28T10:58:23.713Z,43.30
2018-04-28T11:00:51.150Z,42.60
2018-04-28T11:03:18.611Z,43.80
2018-04-28T11:05:46.048Z,44.40
2018-04-28T11:08:14.260Z,44.70
2018-04-28T11:10:41.696Z,44.60
2018-04-28T11:13:09.547Z,45.30
2018-04-28T11:15:37.375Z,45.80
2018-04-28T11:18:04.820Z,46.20
2018-04-28T11:20:32.265Z,46.60
2018-04-28T11:22:59.729Z,47.60
2018-04-28T11:25:27.212Z,47.90
2018-04-28T11:27:54.623Z,47.00
2018-04-28T11:30:22.095Z,46.40
2018-04-28T11:32:49.648Z,41.50
2018-04-28T11:35:17.044Z,41.60
2018-04-28T11:37:44.488Z,39.60
2018-04-28T11:40:11.928Z,38.10
2018-04-28T11:42:39.376Z,39.50
2018-04-28T11:45:06.803Z,41.10
2018-04-28T11:47:35.018Z,40.90
2018-04-28T11:50:02.447Z,40.90
2018-04-28T11:52:31.042Z,41.80
2018-04-28T11:54:59.608Z,41.30
2018-04-28T11:57:27.028Z,42.10
2018-04-28T11:59:54.867Z,43.30
2018-04-28T12:02:23.462Z,42.50
2018-04-28T12:04:51.297Z,42.60
2018-04-28T12:07:18.723Z,43.00
2018-04-28T12:09:46.930Z,40.90
2018-04-28T12:12:14.356Z,40.70
2018-04-28T12:14:42.559Z,38.90
2018-04-28T12:17:10.017Z,38.80
2018-04-28T12:19:37.513Z,38.20
2018-04-28T12:22:04.944Z,37.50
2018-04-28T12:24:32.420Z,36.90
2018-04-28T12:27:00.279Z,35.40
2018-04-28T12:29:27.703Z,36.40
2018-04-28T12:31:55.901Z,38.80
2018-04-28T12:34:23.408Z,39.40
2018-04-28T12:36:51.529Z,41.50
2018-04-28T12:39:18.993Z,41.40
2018-04-28T12:41:46.411Z,40.20
2018-04-28T12:44:14.629Z,41.30
2018-04-28T12:46:42.069Z,41.30
2018-04-28T12:49:09.544Z,41.60
2018-04-28T12:51:36.967Z,39.80
2018-04-28T12:54:05.169Z,41.20
2018-04-28T12:56:32.603Z,41.10
2018-04-28T12:59:00.816Z,38.50
2018-04-28T13:01:28.648Z,33.90
2018-04-28T13:03:56.854Z,34.90
2018-04-28T13:06:25.406Z,34.90
2018-04-28T13:08:52.838Z,35.90
2018-04-28T13:11:20.665Z,37.50
2018-04-28T13:13:48.146Z,38.00
2018-04-28T13:16:15.892Z,38.70
2018-04-28T13:18:43.338Z,38.90
2018-04-28T13:21:10.769Z,39.10
2018-04-28T13:23:38.971Z,38.40
2018-04-28T13:26:06.800Z,38.40
2018-04-28T13:28:34.713Z,38.50
2018-04-28T13:31:02.063Z,40.10
2018-04-28T13:33:30.635Z,39.80
2018-04-28T13:35:58.516Z,40.40
2018-04-28T13:40:54.737Z,40.80
2018-04-28T13:43:22.942Z,41.90
2018-04-28T13:45:50.759Z,41.20
2018-04-28T13:48:19.039Z,42.60
2018-04-28T13:50:47.160Z,43.20
2018-04-28T13:53:14.591Z,43.60
2018-04-28T13:55:42.029Z,41.50
2018-04-28T13:58:10.259Z,42.90
2018-04-28T14:00:37.692Z,42.90
2018-04-28T14:03:05.140Z,41.90
2018-04-28T14:05:33.352Z,41.30
2018-04-28T14:08:00.785Z,41.30
2018-04-28T14:10:28.247Z,42.20
2018-04-28T14:12:56.111Z,40.70
2018-04-28T14:15:23.531Z,42.50
2018-04-28T14:17:51.734Z,42.70
2018-04-28T14:20:19.167Z,41.90
2018-04-28T14:22:47.374Z,42.10
2018-04-28T14:25:14.799Z,42.60
2018-04-28T14:27:43.006Z,42.90
2018-04-28T14:30:11.211Z,42.90
2018-04-28T14:32:38.646Z,43.30
2018-04-28T14:35:06.082Z,42.80
2018-04-28T14:37:33.517Z,42.60
2018-04-28T14:40:01.710Z,43.30
2018-04-28T14:42:40.062Z,43.30
2018-04-28T14:45:07.511Z,42.30
2018-04-28T14:47:34.990Z,40.50
2018-04-28T14:50:02.415Z,41.80
2018-04-28T14:52:29.885Z,40.80
2018-04-28T14:54:57.329Z,41.20
2018-04-28T14:57:24.760Z,40.50
2018-04-28T14:59:52.967Z,41.90
2018-04-28T15:02:20.402Z,41.90
2018-04-28T15:04:47.844Z,40.90
2018-04-28T15:07:16.972Z,40.50
2018-04-28T15:09:44.510Z,40.40
2018-04-28T15:12:11.837Z,40.50
2018-04-28T15:14:39.278Z,40.60
2018-04-28T15:17:06.707Z,40.80
2018-04-28T15:19:34.147Z,40.80
2018-04-28T15:22:02.451Z,41.10
2018-04-28T15:24:29.884Z,41.30
2018-04-28T15:26:57.332Z,41.10
2018-04-28T15:29:24.759Z,42.50
2018-04-28T15:31:52.992Z,42.00
2018-04-28T15:34:20.437Z,42.00
2018-04-28T15:36:47.867Z,40.90
2018-04-28T15:39:16.998Z,41.00
2018-04-28T15:41:44.410Z,41.00
2018-04-28T15:44:12.239Z,40.40
2018-04-28T15:46:40.431Z,40.20
2018-04-28T15:49:07.879Z,40.90
2018-04-28T15:51:35.320Z,40.60
2018-04-28T15:54:03.511Z,40.00
2018-04-28T15:56:30.953Z,40.30
2018-04-28T15:58:59.155Z,40.40
2018-04-28T16:01:26.595Z,41.80
2018-04-28T16:03:54.819Z,41.60
2018-04-28T16:06:23.024Z,41.50
2018-04-28T16:08:51.220Z,41.50
2018-04-28T16:11:18.659Z,41.20
2018-04-28T16:13:46.093Z,41.50
2018-04-28T16:16:13.915Z,42.10
2018-04-28T16:18:41.359Z,41.60
2018-04-28T16:21:08.796Z,41.70
2018-04-28T16:23:37.009Z,41.70
2018-04-28T16:26:04.449Z,41.80
2018-04-28T16:28:31.881Z,42.30
2018-04-28T16:30:59.319Z,42.70
2018-04-28T16:33:26.817Z,41.80
2018-04-28T16:35:54.252Z,41.40
2018-04-28T16:38:22.448Z,41.60
2018-04-28T16:40:50.287Z,42.10
2018-04-28T16:43:17.715Z,41.70
2018-04-28T16:45:45.911Z,42.50
2018-04-28T16:48:14.120Z,41.90
2018-04-28T16:50:41.600Z,42.70
2018-04-28T16:53:09.376Z,42.30
2018-04-28T16:55:36.808Z,42.40
2018-04-28T16:58:04.635Z,43.50
2018-04-28T17:00:32.073Z,44.00
2018-04-28T17:03:00.292Z,44.90
2018-04-28T17:05:27.717Z,44.90
2018-04-28T17:07:55.571Z,43.50
2018-04-28T17:10:24.196Z,42.80
2018-04-28T17:12:51.615Z,43.20
2018-04-28T17:15:19.828Z,43.30
2018-04-28T17:17:53.249Z,42.70
2018-04-28T17:20:21.447Z,43.60
2018-04-28T17:22:49.312Z,43.20
2018-04-28T17:25:17.537Z,42.50
2018-04-28T17:27:44.949Z,43.00
2018-04-28T17:30:13.160Z,44.20
2018-04-28T17:32:40.592Z,43.10
2018-04-28T17:35:08.435Z,44.10
2018-04-28T17:37:37.015Z,43.40
2018-04-28T17:40:04.453Z,44.00
2018-04-28T17:42:31.893Z,44.20
2018-04-28T17:44:59.331Z,44.70
2018-04-28T17:47:27.534Z,43.50
2018-04-28T17:49:55.735Z,45.20
2018-04-28T17:52:23.176Z,43.90
2018-04-28T17:54:50.604Z,43.80
2018-04-28T17:57:18.809Z,43.20
2018-04-28T17:59:46.248Z,45.70
2018-04-28T18:02:13.684Z,44.80
2018-04-28T18:04:42.618Z,43.10
2018-04-28T18:07:10.064Z,42.30
2018-04-28T18:09:37.564Z,42.70
2018-04-28T18:12:04.934Z,43.60
2018-04-28T18:14:33.225Z,44.40
2018-04-28T18:17:01.342Z,43.00
2018-04-28T18:19:30.282Z,42.50
2018-04-28T18:21:58.507Z,43.30
2018-04-28T18:24:25.926Z,42.60
2018-04-28T18:26:53.377Z,42.10
2018-04-28T18:29:21.576Z,42.80
2018-04-28T18:31:49.011Z,42.90
2018-04-28T18:34:16.594Z,43.20
2018-04-28T18:36:44.040Z,43.20
2018-04-28T18:39:12.232Z,43.10
2018-04-28T18:41:39.684Z,43.10
2018-04-28T18:44:07.114Z,42.40
2018-04-28T18:46:35.387Z,41.70
2018-04-28T18:49:02.758Z,41.70
2018-04-28T18:51:30.192Z,41.80
2018-04-28T18:53:58.404Z,42.10
2018-04-28T18:56:25.844Z,42.00
2018-04-28T18:58:53.279Z,42.20
2018-04-28T19:01:21.484Z,42.40
2018-04-28T19:03:48.922Z,42.40
2018-04-28T19:06:16.546Z,42.90
2018-04-28T19:08:43.983Z,42.90
2018-04-28T19:11:11.421Z,43.60
2018-04-28T19:13:38.847Z,43.10
2018-04-28T19:16:07.069Z,44.70
2018-04-28T19:18:34.512Z,44.70
2018-04-28T19:21:01.981Z,43.50
2018-04-28T19:23:29.412Z,43.40
2018-04-28T19:25:57.736Z,43.80
2018-04-28T19:28:28.486Z,43.70
2018-04-28T19:30:55.920Z,43.70
2018-04-28T19:33:23.521Z,44.10
2018-04-28T19:35:52.021Z,43.90
2018-04-28T19:38:20.294Z,43.90
2018-04-28T19:40:48.612Z,43.90
2018-04-28T19:43:19.264Z,44.50
2018-04-28T19:45:47.156Z,44.40
2018-04-28T19:48:14.848Z,44.50
2018-04-28T19:50:42.267Z,45.30
2018-04-28T19:53:09.745Z,44.70
2018-04-28T19:55:38.405Z,47.90
2018-04-28T19:58:05.889Z,48.00
2018-04-28T20:00:34.092Z,46.20
2018-04-28T20:03:01.526Z,46.20
2018-04-28T20:05:29.727Z,46.10
2018-04-28T20:07:57.378Z,46.10
2018-04-28T20:10:24.852Z,45.90
2018-04-28T20:12:52.297Z,45.90
2018-04-28T20:15:21.324Z,46.80
2018-04-28T20:17:49.145Z,46.80
2018-04-28T20:20:16.861Z,47.20
2018-04-28T20:22:56.192Z,47.00
2018-04-28T20:25:25.485Z,47.90
2018-04-28T20:27:52.919Z,48.80
2018-04-28T20:30:20.367Z,49.50
2018-04-28T20:32:48.033Z,49.90
2018-04-28T20:35:15.865Z,50.50
2018-04-28T20:37:43.280Z,51.20
2018-04-28T20:40:10.707Z,51.70
2018-04-28T20:42:38.908Z,51.40
2018-04-28T20:45:06.336Z,51.40
2018-04-28T20:47:36.635Z,51.40
2018-04-28T20:50:04.336Z,51.40
2018-04-28T20:52:31.800Z,50.80
2018-04-28T20:54:59.237Z,52.20
2018-04-28T20:57:27.556Z,52.00
2018-04-28T20:59:55.095Z,52.00
2018-04-28T21:02:22.483Z,51.80
2018-04-28T21:04:49.902Z,51.20
2018-04-28T21:07:18.533Z,52.40
2018-04-28T21:09:45.964Z,51.50
2018-04-28T21:12:13.417Z,51.60
2018-04-28T21:14:40.868Z,52.60
2018-04-28T21:17:08.379Z,52.10
2018-04-28T21:19:35.827Z,52.40
2018-04-28T21:22:03.351Z,52.80
2018-04-28T21:24:30.750Z,51.30
2018-04-28T21:26:58.155Z,53.90
2018-04-28T21:29:25.592Z,53.10
2018-04-28T21:31:53.797Z,53.10
2018-04-28T21:34:21.280Z,53.00
2018-04-28T21:36:49.500Z,53.80
2018-04-28T21:39:17.716Z,53.70
2018-04-28T21:41:45.164Z,53.70
2018-04-28T21:44:12.590Z,53.30
2018-04-28T21:46:40.787Z,52.80
2018-04-28T21:49:08.219Z,52.80
2018-04-28T21:51:36.419Z,53.50
2018-04-28T21:54:03.843Z,53.40
2018-04-28T21:56:32.039Z,54.50
2018-04-28T21:58:59.480Z,54.40
2018-04-28T22:01:27.698Z,54.70
2018-04-28T22:03:55.144Z,54.60
2018-04-28T22:06:22.571Z,54.30
2018-04-28T22:08:50.783Z,54.30
2018-04-28T22:11:18.209Z,54.30
2018-04-28T22:13:46.419Z,54.10
2018-04-28T22:16:13.872Z,54.10
2018-04-28T22:18:41.294Z,54.40
2018-04-28T22:21:09.485Z,55.00
2018-04-28T22:23:36.942Z,54.90
2018-04-28T22:26:05.121Z,56.60
2018-04-28T22:28:32.839Z,56.60
2018-04-28T22:31:00.283Z,56.20
2018-04-28T22:33:27.727Z,56.40
2018-04-28T22:35:55.193Z,56.00
2018-04-28T22:38:22.636Z,55.90
2018-04-28T22:40:50.117Z,57.60
2018-04-28T22:43:17.532Z,56.40
2018-04-28T22:45:44.970Z,57.30
2018-04-28T22:48:13.167Z,56.80
2018-04-28T22:50:40.602Z,56.80
2018-04-28T22:53:08.804Z,56.80
2018-04-28T22:55:36.245Z,56.80
2018-04-28T22:58:03.672Z,56.90
2018-04-28T23:00:42.811Z,57.00
2018-04-28T23:03:11.021Z,56.40
2018-04-28T23:05:38.451Z,56.40
2018-04-28T23:08:06.644Z,56.10
2018-04-28T23:10:34.092Z,56.10
2018-04-28T23:13:02.345Z,55.80
2018-04-28T23:15:29.856Z,55.80
2018-04-28T23:17:57.283Z,56.50
2018-04-28T23:20:25.500Z,56.30
2018-04-28T23:22:52.931Z,56.30
2018-04-28T23:25:20.383Z,56.80
2018-04-28T23:27:47.820Z,57.00
2018-04-28T23:30:16.949Z,57.40
2018-04-28T23:32:44.379Z,57.40
2018-04-28T23:35:12.590Z,58.40
2018-04-28T23:37:40.033Z,58.40
2018-04-28T23:40:07.473Z,59.30
2018-04-28T23:42:35.673Z,58.70
2018-04-28T23:45:03.113Z,58.70
2018-04-28T23:47:31.316Z,59.00
2018-04-28T23:49:58.756Z,59.00
2018-04-28T23:52:26.203Z,58.90
2018-04-28T23:54:54.414Z,59.50
2018-04-28T23:57:21.847Z,59.50
2018-04-28T23:59:49.280Z,59.20
